Time;durP1;ratioP1;P1;durP2;ratioP2;P2;SDS_P1;SDS_P2;PMS_P1;PMS_P2;Temp;Humidity;BMP_temperature;BMP_pressure;BME280_temperature;BME280_humidity;BME280_pressure;Samples;Min_cycle;Max_cycle;Signal;HPM_P1;HPM_P2
2023/02/13 00:02:21;;;;;;;6.72;1.60;;;;;;;-6.62;68.24;100107.69;5072496;28;20033;-46
2023/02/13 00:04:47;;;;;;;4.60;1.55;;;;;;;-6.59;68.09;100094.66;5072327;28;20104;-48
2023/02/13 00:07:12;;;;;;;3.40;1.50;;;;;;;-6.57;67.88;100098.09;5072500;28;20172;-50
2023/02/13 00:09:38;;;;;;;3.70;1.63;;;;;;;-6.51;68.06;100100.69;5072386;28;20427;-46
2023/02/13 00:12:05;;;;;;;5.57;1.60;;;;;;;-6.45;68.19;100081.53;5072437;28;20028;-49
2023/02/13 00:14:35;;;;;;;3.65;1.65;;;;;;;-6.37;68.11;100081.50;5072572;28;20024;-46
2023/02/13 00:17:00;;;;;;;10.57;1.75;;;;;;;-6.28;68.28;100075.34;5072364;28;20033;-48
2023/02/13 00:19:26;;;;;;;4.72;1.90;;;;;;;-6.18;67.87;100065.72;5072435;28;20431;-48
2023/02/13 00:21:51;;;;;;;4.53;1.95;;;;;;;-6.10;67.98;100067.41;5072853;28;20439;-47
2023/02/13 00:24:17;;;;;;;4.65;1.65;;;;;;;-5.99;67.48;100069.00;5072013;28;20029;-48
2023/02/13 00:26:42;;;;;;;3.60;1.58;;;;;;;-5.95;67.08;100055.06;5072168;28;20032;-46
2023/02/13 00:29:08;;;;;;;4.63;1.90;;;;;;;-5.80;67.85;100059.25;5072425;28;20056;-47
2023/02/13 00:31:33;;;;;;;2.13;1.38;;;;;;;-5.72;67.08;100060.06;5071986;28;20598;-47
2023/02/13 00:33:58;;;;;;;7.15;1.60;;;;;;;-5.63;67.13;100057.34;5072349;28;20120;-49
2023/02/13 00:36:24;;;;;;;2.88;1.40;;;;;;;-5.53;66.47;100052.91;5072603;28;20111;-49
2023/02/13 00:38:50;;;;;;;4.25;1.30;;;;;;;-5.44;66.56;100036.28;5071939;28;20047;-50
2023/02/13 00:41:17;;;;;;;4.68;1.50;;;;;;;-5.54;66.35;100008.59;5071967;28;20458;-49
2023/02/13 00:43:43;;;;;;;5.15;1.55;;;;;;;-5.33;66.40;100026.56;5074781;28;20056;-48
2023/02/13 00:46:09;;;;;;;2.75;1.30;;;;;;;-5.23;66.39;100029.09;5075825;28;20080;-45
2023/02/13 00:48:36;;;;;;;4.20;1.48;;;;;;;-5.15;66.29;100018.56;5075658;28;20423;-46
2023/02/13 00:51:02;;;;;;;3.45;1.58;;;;;;;-5.10;65.65;100011.53;5075809;28;20096;-49
2023/02/13 00:53:29;;;;;;;3.88;1.50;;;;;;;-5.08;65.69;100007.97;5075909;28;20067;-51
2023/02/13 00:55:54;;;;;;;5.55;1.65;;;;;;;-5.00;66.03;100009.66;5075892;28;20431;-48
2023/02/13 00:58:20;;;;;;;3.97;1.42;;;;;;;-4.94;65.77;100010.44;5075523;28;20119;-47
2023/02/13 01:00:46;;;;;;;6.18;1.65;;;;;;;-4.90;65.47;100008.63;5075741;28;20363;-46
2023/02/13 01:03:13;;;;;;;6.05;1.70;;;;;;;-4.91;65.38;100004.28;5076121;28;20032;-50
2023/02/13 01:05:38;;;;;;;3.28;1.50;;;;;;;-4.91;65.12;99999.06;5075617;28;20025;-46
2023/02/13 01:08:04;;;;;;;3.97;1.55;;;;;;;-4.86;64.94;100012.06;5075312;28;20025;-49
2023/02/13 01:10:30;;;;;;;3.42;1.60;;;;;;;-4.85;65.05;99998.13;5075595;28;20028;-48
2023/02/13 01:12:55;;;;;;;3.15;1.40;;;;;;;-4.82;65.08;100004.16;5075692;28;20059;-51
2023/02/13 01:15:21;;;;;;;2.75;1.42;;;;;;;-4.78;64.71;99999.75;5075193;28;20043;-48
2023/02/13 01:17:47;;;;;;;3.78;1.73;;;;;;;-4.73;65.11;99994.47;5075118;28;20097;-48
2023/02/13 01:20:13;;;;;;;5.15;1.55;;;;;;;-4.70;65.20;99991.81;5075394;28;20029;-47
2023/02/13 01:22:39;;;;;;;5.20;1.60;;;;;;;-4.64;64.75;99994.31;5075273;28;20029;-47
2023/02/13 01:25:05;;;;;;;3.70;1.40;;;;;;;-4.62;64.14;99992.53;5074185;28;20032;-47
2023/02/13 01:27:31;;;;;;;2.67;1.50;;;;;;;-4.60;64.45;99985.53;5074747;28;20184;-52
2023/02/13 01:29:57;;;;;;;3.03;1.35;;;;;;;-4.58;64.92;99972.47;5075874;28;20544;-47
2023/02/13 01:32:22;;;;;;;6.85;1.30;;;;;;;-4.47;64.48;99973.13;5075473;28;20163;-46
2023/02/13 01:34:48;;;;;;;5.53;1.50;;;;;;;-4.43;64.43;99968.72;5074973;28;20024;-48
2023/02/13 01:37:13;;;;;;;4.53;1.35;;;;;;;-4.38;64.61;99962.53;5074608;28;20024;-46
2023/02/13 01:39:39;;;;;;;6.25;1.42;;;;;;;-4.33;64.73;99954.63;5075018;28;20025;-49
2023/02/13 01:42:14;;;;;;;4.35;1.50;;;;;;;-4.28;63.91;99952.78;5075074;28;20375;-46
2023/02/13 01:44:50;;;;;;;4.68;1.70;;;;;;;-4.20;63.78;99950.91;5075029;28;20040;-47
2023/02/13 01:47:40;;;;;;;2.95;1.63;;;;;;;-4.16;63.99;99951.72;5074548;28;20063;-49
2023/02/13 01:50:16;;;;;;;4.20;1.35;;;;;;;-4.15;64.28;99937.75;5068728;28;20040;-51
2023/02/13 01:53:05;;;;;;;4.38;1.80;;;;;;;-4.12;63.93;99929.84;5074720;28;20032;-48
2023/02/13 01:55:34;;;;;;;5.90;1.80;;;;;;;-4.07;63.82;99924.53;5074337;28;20028;-50
2023/02/13 01:58:12;;;;;;;3.60;1.17;;;;;;;-4.05;63.00;99920.97;5074651;28;20033;-46
2023/02/13 02:00:38;;;;;;;3.20;1.13;;;;;;;-4.06;63.49;99915.81;5073443;28;20074;-47
2023/02/13 02:03:13;;;;;;;4.30;1.33;;;;;;;-4.00;63.36;99909.56;5074533;28;20351;-45
2023/02/13 02:05:38;;;;;;;3.50;1.30;;;;;;;-4.06;63.09;99900.09;5074635;28;20446;-46
2023/02/13 02:08:08;;;;;;;5.30;1.20;;;;;;;-4.01;63.08;99913.94;5074615;28;20033;-50
2023/02/13 02:10:33;;;;;;;3.20;1.30;;;;;;;-4.16;63.06;99893.31;5074321;28;20025;-47
2023/02/13 02:13:13;;;;;;;4.35;1.60;;;;;;;-3.97;63.42;99915.59;5074451;28;20036;-46
2023/02/13 02:15:40;;;;;;;3.17;1.20;;;;;;;-3.97;63.03;99905.16;5073940;28;20036;-47
2023/02/13 02:18:20;;;;;;;9.48;1.60;;;;;;;-3.90;63.03;99891.03;5074326;28;20119;-48
2023/02/13 02:20:58;;;;;;;3.03;1.23;;;;;;;-3.82;62.99;99900.50;5073658;28;20032;-48
2023/02/13 02:23:47;;;;;;;3.05;1.45;;;;;;;-3.78;62.82;99891.72;5074092;28;20043;-47
2023/02/13 02:26:37;;;;;;;2.67;1.35;;;;;;;-3.76;63.36;99888.16;5073822;28;20060;-47
2023/02/13 02:29:20;;;;;;;8.85;1.60;;;;;;;-3.72;63.28;99878.50;5073736;28;20045;-55
2023/02/13 02:32:21;;;;;;;4.80;1.80;;;;;;;-3.69;63.06;99886.28;5073983;28;20093;-46
2023/02/13 02:34:55;;;;;;;3.72;1.75;;;;;;;-3.71;62.62;99874.13;5073522;28;20039;-48
2023/02/13 02:37:54;;;;;;;4.57;1.80;;;;;;;-3.65;62.77;99877.47;5073697;28;20042;-46
2023/02/13 02:41:01;;;;;;;3.65;1.70;;;;;;;-3.61;63.31;99862.56;5073853;28;20111;-48
2023/02/13 02:43:32;;;;;;;;;;;;;;;-3.38;62.60;99850.72;5062233;28;20509;-49
2023/02/13 02:46:09;;;;;;;5.25;2.10;;;;;;;-3.51;62.78;99853.59;5073448;28;19967;-50
2023/02/13 02:51:27;;;;;;;5.95;2.13;;;;;;;-3.51;62.55;99843.13;5073663;28;20172;-45
2023/02/13 02:57:14;;;;;;;6.72;1.95;;;;;;;-3.46;62.27;99837.81;5073646;28;20047;-48
2023/02/13 03:08:14;;;;;;;5.80;1.95;;;;;;;-3.37;62.50;99835.00;5073659;28;20043;-49
2023/02/13 03:13:40;;;;;;;5.47;1.63;;;;;;;-3.32;62.46;99819.16;5072973;28;20037;-51
2023/02/13 03:22:17;;;;;;;6.20;1.92;;;;;;;-3.24;63.00;99817.22;5072765;28;20035;-51
2023/02/13 03:25:32;;;;;;;7.47;2.22;;;;;;;-3.21;62.80;99811.03;5072983;28;20036;-48
2023/02/13 03:31:24;;;;;;;7.45;1.67;;;;;;;-3.23;63.29;99794.50;5072888;28;20041;-48
2023/02/13 03:33:56;;;;;;;6.22;1.73;;;;;;;-3.27;63.39;99785.84;5072644;28;20064;-49
2023/02/13 03:39:20;;;;;;;4.20;1.80;;;;;;;-3.26;63.57;99763.16;5073182;28;20122;-47
2023/02/13 03:41:50;;;;;;;6.85;1.90;;;;;;;-3.27;63.38;99748.34;5072699;28;20439;-47
2023/02/13 03:44:35;;;;;;;4.53;1.90;;;;;;;-3.20;63.68;99752.53;5072589;28;20182;-48
2023/02/13 03:47:04;;;;;;;;;;;;;;;-3.02;63.74;99745.97;5065902;28;20045;-46
2023/02/13 03:52:43;;;;;;;2.60;1.10;;;;;;;-3.24;63.39;99729.94;5072581;28;20359;-51
2023/02/13 04:00:57;;;;;;;4.85;1.80;;;;;;;-3.05;63.58;99757.38;5072483;28;20029;-48
2023/02/13 04:03:41;;;;;;;5.32;1.60;;;;;;;-3.00;64.26;99751.16;5072537;28;20055;-47
2023/02/13 04:06:11;;;;;;;4.15;2.00;;;;;;;-3.02;64.11;99759.06;5072768;28;20028;-50
2023/02/13 04:08:37;;;;;;;6.43;1.98;;;;;;;-3.05;64.13;99754.78;5072703;28;20036;-48
2023/02/13 04:11:14;;;;;;;5.53;2.10;;;;;;;-3.03;64.04;99749.47;5072443;28;20020;-48
2023/02/13 04:13:51;;;;;;;3.58;2.15;;;;;;;-3.00;63.85;99746.81;5072369;28;20042;-51
2023/02/13 04:16:28;;;;;;;5.78;2.58;;;;;;;-3.03;63.80;99739.00;5072460;28;20427;-50
2023/02/13 04:18:55;;;;;;;4.35;1.80;;;;;;;-3.04;64.31;99732.03;5076505;28;20052;-48
2023/02/13 04:21:20;;;;;;;6.43;2.28;;;;;;;-3.08;64.59;99727.78;5076242;28;20037;-49
2023/02/13 04:23:45;;;;;;;7.55;2.40;;;;;;;-3.07;64.54;99730.38;5075996;28;20132;-49
2023/02/13 04:26:17;;;;;;;4.90;2.13;;;;;;;-3.04;64.96;99708.47;5076183;28;20040;-49
2023/02/13 04:28:42;;;;;;;3.92;1.98;;;;;;;-3.04;64.42;99703.22;5076256;28;20120;-49
2023/02/13 04:31:08;;;;;;;3.30;1.90;;;;;;;-3.00;65.07;99678.69;5076068;28;20423;-48
2023/02/13 04:33:33;;;;;;;4.82;2.08;;;;;;;-2.87;64.90;99697.56;5075913;28;20052;-50
2023/02/13 04:35:59;;;;;;;4.35;1.90;;;;;;;-2.85;65.44;99703.63;5076042;28;20075;-48
2023/02/13 04:38:24;;;;;;;3.60;1.40;;;;;;;-2.87;64.92;99684.47;5075531;28;20039;-48
2023/02/13 04:40:49;;;;;;;4.80;1.63;;;;;;;-2.82;65.14;99694.78;5075751;28;20420;-48
2023/02/13 04:43:15;;;;;;;3.67;1.40;;;;;;;-2.81;65.38;99689.53;5075896;28;20041;-48
2023/02/13 04:45:41;;;;;;;3.65;1.27;;;;;;;-2.78;64.75;99678.06;5075900;28;20040;-53
2023/02/13 04:48:06;;;;;;;4.10;1.65;;;;;;;-2.77;65.07;99672.81;5076070;28;20032;-48
2023/02/13 04:50:31;;;;;;;4.65;1.67;;;;;;;-2.74;64.74;99674.50;5075719;28;20036;-48
2023/02/13 04:52:57;;;;;;;4.70;1.70;;;;;;;-2.74;65.13;99667.47;5074909;28;20406;-49
2023/02/13 04:55:24;;;;;;;4.40;1.50;;;;;;;-2.67;64.58;99662.06;5075845;28;20408;-48
2023/02/13 04:57:54;;;;;;;5.72;1.98;;;;;;;-2.65;64.30;99657.66;5075427;28;20418;-47
2023/02/13 05:00:25;;;;;;;5.25;1.70;;;;;;;-2.60;64.33;99655.75;5074310;28;20032;-50
2023/02/13 05:02:51;;;;;;;2.75;1.30;;;;;;;-2.64;63.96;99649.72;5075812;28;20058;-48
2023/02/13 05:05:18;;;;;;;4.97;1.38;;;;;;;-2.65;64.69;99642.78;5075658;28;20050;-50
2023/02/13 05:07:44;;;;;;;5.38;1.73;;;;;;;-2.66;64.60;99632.31;5075231;28;20036;-47
2023/02/13 05:10:11;;;;;;;4.78;1.50;;;;;;;-2.63;64.73;99640.13;5075642;28;20037;-48
2023/02/13 05:12:38;;;;;;;5.63;2.35;;;;;;;-2.64;64.50;99628.75;5075710;28;20435;-50
2023/02/13 05:15:05;;;;;;;3.33;1.58;;;;;;;-2.61;64.45;99627.81;5075407;28;20032;-49
2023/02/13 05:17:30;;;;;;;5.13;1.60;;;;;;;-2.58;64.70;99626.84;5075159;28;20352;-47
2023/02/13 05:19:56;;;;;;;3.33;1.50;;;;;;;-2.54;64.28;99642.47;5074945;28;20424;-47
2023/02/13 05:25:05;;;;;;;4.47;1.42;;;;;;;-2.48;64.22;99639.66;5075143;28;20025;-46
2023/02/13 05:27:31;;;;;;;3.47;1.83;;;;;;;-2.52;63.80;99627.53;5074974;28;20123;-48
2023/02/13 05:29:56;;;;;;;3.13;1.55;;;;;;;-2.47;64.25;99624.78;5074281;28;20068;-49
2023/02/13 05:32:22;;;;;;;7.05;1.88;;;;;;;-2.45;64.22;99620.34;5075389;28;20033;-47
2023/02/13 05:34:47;;;;;;;7.50;1.67;;;;;;;-2.42;64.69;99619.38;5075109;28;20028;-47
2023/02/13 05:37:13;;;;;;;5.20;1.80;;;;;;;-2.40;63.98;99617.59;5074789;28;20404;-60
2023/02/13 05:39:38;;;;;;;3.70;1.63;;;;;;;-2.38;63.94;99614.00;5075020;28;20028;-51
2023/02/13 05:42:04;;;;;;;4.93;1.67;;;;;;;-2.37;64.49;99618.34;5074888;28;20082;-48
2023/02/13 05:44:30;;;;;;;6.03;1.88;;;;;;;-2.35;64.45;99616.53;5074965;28;20064;-47
2023/02/13 05:46:56;;;;;;;6.20;1.85;;;;;;;-2.29;63.88;99612.00;5074529;28;20047;-49
2023/02/13 05:49:22;;;;;;;5.15;1.92;;;;;;;-2.42;64.47;99593.16;5074525;28;20025;-48
2023/02/13 05:51:48;;;;;;;7.40;1.88;;;;;;;-2.16;64.33;99623.84;5074524;28;20116;-50
2023/02/13 05:54:14;;;;;;;5.32;2.05;;;;;;;-2.06;64.25;99619.16;5074742;28;20032;-47
2023/02/13 05:56:40;;;;;;;4.93;1.50;;;;;;;-1.99;63.84;99618.03;5074363;28;20105;-47
2023/02/13 05:59:05;;;;;;;6.63;2.17;;;;;;;-1.97;63.42;99616.22;5074403;28;20025;-48
2023/02/13 06:01:31;;;;;;;4.63;1.90;;;;;;;-1.92;63.31;99611.72;5074310;28;20059;-52
2023/02/13 06:03:57;;;;;;;5.22;1.73;;;;;;;-1.95;63.42;99614.41;5074195;28;20032;-48
2023/02/13 06:06:23;;;;;;;3.85;1.92;;;;;;;-1.83;63.71;99618.41;5074129;28;20044;-49
2023/02/13 06:08:48;;;;;;;5.88;2.25;;;;;;;-1.77;63.61;99612.97;5074340;28;20036;-47
2023/02/13 06:11:14;;;;;;;5.13;1.90;;;;;;;-1.68;63.06;99614.44;5074086;28;20363;-51
2023/02/13 06:13:39;;;;;;;7.40;1.90;;;;;;;-1.65;63.41;99598.56;5074209;28;20104;-48
2023/02/13 06:16:11;;;;;;;6.97;1.67;;;;;;;-1.50;62.72;99612.06;5074023;28;20426;-46
2023/02/13 06:18:37;;;;;;;4.97;1.38;;;;;;;-1.46;63.17;99613.69;5073737;28;20056;-50
2023/02/13 06:21:03;;;;;;;4.60;1.70;;;;;;;-1.36;62.50;99614.22;5074133;28;20461;-49
2023/02/13 06:23:30;;;;;;;7.30;1.92;;;;;;;-1.26;62.12;99599.00;5074078;28;20116;-49
2023/02/13 06:25:55;;;;;;;6.15;1.70;;;;;;;-1.39;62.59;99609.94;5073556;28;20492;-50
2023/02/13 06:28:20;;;;;;;4.45;1.58;;;;;;;-1.40;62.63;99596.84;5073745;28;20057;-52
2023/02/13 06:30:47;;;;;;;4.40;1.70;;;;;;;-1.32;62.20;99606.19;5074402;28;20029;-50
2023/02/13 06:33:13;;;;;;;3.97;1.80;;;;;;;-1.22;62.22;99596.22;5073922;28;20043;-50
2023/02/13 06:35:38;;;;;;;3.60;1.95;;;;;;;-1.07;61.95;99593.97;5073466;28;20041;-50
2023/02/13 06:38:04;;;;;;;3.38;1.73;;;;;;;-1.01;61.42;99589.31;5073726;28;20060;-50
2023/02/13 06:40:29;;;;;;;4.53;2.08;;;;;;;-0.95;61.07;99592.66;5072906;28;20025;-51
2023/02/13 06:42:55;;;;;;;5.35;1.75;;;;;;;-0.88;60.96;99575.72;5073591;28;20045;-48
2023/02/13 06:45:20;;;;;;;5.97;1.83;;;;;;;-0.90;61.46;99567.06;5073262;28;20040;-50
2023/02/13 06:47:47;;;;;;;3.42;1.67;;;;;;;-0.87;61.10;99578.28;5073592;28;20033;-49
2023/02/13 06:50:15;;;;;;;5.82;2.03;;;;;;;-0.83;61.06;99576.41;5073917;28;20459;-50
2023/02/13 06:52:48;;;;;;;4.78;2.20;;;;;;;-0.76;61.34;99566.53;5073168;28;20075;-48
2023/02/13 06:55:14;;;;;;;5.25;2.50;;;;;;;-0.84;61.04;99555.41;5073525;28;20420;-51
2023/02/13 06:57:41;;;;;;;3.83;2.10;;;;;;;-0.94;60.64;99552.31;5073690;28;20042;-52
2023/02/13 07:00:07;;;;;;;11.32;2.33;;;;;;;-0.80;60.75;99562.31;5073445;28;20105;-49
2023/02/13 07:02:33;;;;;;;7.07;1.80;;;;;;;-0.85;61.52;99562.47;5073026;28;20025;-49
2023/02/13 07:04:58;;;;;;;6.95;2.17;;;;;;;-0.87;61.69;99551.16;5072979;28;20039;-48
2023/02/13 07:07:24;;;;;;;5.13;2.03;;;;;;;-0.85;61.37;99556.34;5073447;28;20064;-48
2023/02/13 07:09:49;;;;;;;3.78;1.65;;;;;;;-0.82;61.38;99548.38;5073499;28;20025;-48
2023/02/13 07:12:15;;;;;;;7.03;1.70;;;;;;;-0.79;61.01;99546.47;5073292;28;20027;-47
2023/02/13 07:14:40;;;;;;;5.00;1.98;;;;;;;-0.84;60.80;99540.53;5072844;28;20335;-50
2023/02/13 07:17:06;;;;;;;4.40;1.92;;;;;;;-0.92;61.21;99521.56;5073173;28;20039;-49
2023/02/13 07:19:32;;;;;;;9.98;2.00;;;;;;;-0.87;61.07;99535.38;5073309;28;20028;-50
2023/02/13 07:21:57;;;;;;;6.03;2.20;;;;;;;-0.84;60.95;99535.28;5072932;28;20044;-50
2023/02/13 07:24:23;;;;;;;4.85;2.67;;;;;;;-0.73;61.57;99527.81;5073050;28;20033;-48
2023/02/13 07:26:48;;;;;;;6.10;1.92;;;;;;;-0.49;61.67;99522.50;5073514;28;20036;-48
2023/02/13 07:29:14;;;;;;;5.70;2.00;;;;;;;-0.26;60.54;99519.88;5073227;28;20029;-48
2023/02/13 07:31:39;;;;;;;8.32;2.20;;;;;;;-0.02;60.00;99515.38;5072639;28;20347;-49
2023/02/13 07:34:05;;;;;;;5.47;2.30;;;;;;;0.19;59.12;99516.25;5072508;28;20024;-50
2023/02/13 07:36:30;;;;;;;4.35;2.30;;;;;;;0.07;59.03;99503.59;5072908;28;20040;-48
2023/02/13 07:38:56;;;;;;;5.95;2.10;;;;;;;0.18;59.08;99516.31;5072944;28;20036;-52
2023/02/13 07:41:24;;;;;;;6.43;1.92;;;;;;;0.25;58.98;99512.50;5072785;28;20485;-51
2023/02/13 07:43:50;;;;;;;6.47;2.10;;;;;;;0.28;59.05;99499.19;5072775;28;20102;-49
2023/02/13 07:46:15;;;;;;;7.20;2.30;;;;;;;0.37;59.28;99505.84;5072846;28;20048;-51
2023/02/13 07:48:41;;;;;;;8.35;2.40;;;;;;;0.50;59.18;99496.47;5072569;28;20029;-50
2023/02/13 07:51:06;;;;;;;3.90;2.10;;;;;;;0.51;58.95;99498.19;5072718;28;20032;-50
2023/02/13 07:53:32;;;;;;;6.68;2.20;;;;;;;0.47;58.84;99495.75;5075457;28;20076;-50
2023/02/13 07:55:57;;;;;;;5.18;2.10;;;;;;;0.40;59.71;99501.28;5076829;28;20068;-51
2023/02/13 07:58:22;;;;;;;7.45;2.10;;;;;;;0.34;59.94;99504.19;5076603;28;20035;-51
2023/02/13 08:00:48;;;;;;;5.10;2.13;;;;;;;0.26;59.87;99491.34;5076644;28;20107;-51
2023/02/13 08:03:14;;;;;;;6.05;1.90;;;;;;;0.25;60.73;99494.06;5076761;28;20056;-54
2023/02/13 08:05:39;;;;;;;7.63;2.40;;;;;;;0.34;59.84;99503.31;5076270;28;20035;-51
2023/02/13 08:08:06;;;;;;;5.88;2.53;;;;;;;0.12;60.05;99470.91;5076408;28;20460;-48
2023/02/13 08:13:17;;;;;;;8.73;2.22;;;;;;;0.48;60.11;99495.69;5076541;28;20028;-45
2023/02/13 08:15:45;;;;;;;3.95;2.00;;;;;;;0.55;60.71;99489.22;5076419;28;20090;-49
2023/02/13 08:18:11;;;;;;;5.72;2.00;;;;;;;0.62;60.01;99479.25;5076867;28;20089;-49
2023/02/13 08:20:36;;;;;;;4.28;2.17;;;;;;;0.71;60.16;99484.09;5076035;28;20036;-50
2023/02/13 08:23:05;;;;;;;5.05;2.28;;;;;;;0.80;60.07;99482.84;5076222;28;20092;-49
2023/02/13 08:25:30;;;;;;;6.35;2.58;;;;;;;0.79;59.70;99470.56;5076559;28;20043;-47
2023/02/13 08:27:58;;;;;;;7.07;2.78;;;;;;;0.81;59.89;99463.47;5076230;28;20024;-51
2023/02/13 08:30:24;;;;;;;5.75;2.40;;;;;;;0.87;60.28;99469.41;5075921;28;20025;-52
2023/02/13 08:32:49;;;;;;;5.85;2.50;;;;;;;0.93;60.01;99462.03;5076243;28;20024;-48
2023/02/13 08:35:15;;;;;;;7.18;2.20;;;;;;;1.04;59.32;99460.69;5076327;28;20032;-48
2023/02/13 08:37:40;;;;;;;4.45;2.25;;;;;;;0.94;59.74;99452.34;5075876;28;20093;-50
2023/02/13 08:40:09;;;;;;;10.50;3.70;;;;;;;0.83;60.79;99447.59;5075646;28;20367;-48
2023/02/13 08:42:36;;;;;;;4.00;2.13;;;;;;;0.83;60.31;99447.59;5075982;28;20121;-50
2023/02/13 08:45:01;;;;;;;9.50;2.60;;;;;;;0.84;60.84;99451.94;5076309;28;20371;-49
2023/02/13 08:47:29;;;;;;;9.50;2.50;;;;;;;0.80;60.39;99435.38;5075471;28;20039;-48
2023/02/13 08:49:55;;;;;;;8.07;2.40;;;;;;;0.82;61.18;99427.44;5075752;28;20028;-51
2023/02/13 08:52:20;;;;;;;8.50;2.20;;;;;;;0.82;60.85;99422.16;5076208;28;20024;-48
2023/02/13 08:54:46;;;;;;;10.13;2.20;;;;;;;0.89;60.75;99428.84;5075754;28;20049;-52
2023/02/13 08:57:11;;;;;;;5.25;2.30;;;;;;;0.94;60.78;99418.09;5075537;28;20028;-51
2023/02/13 08:59:36;;;;;;;9.55;2.47;;;;;;;0.99;60.36;99426.63;5075357;28;20028;-49
2023/02/13 09:02:02;;;;;;;3.40;1.98;;;;;;;1.06;60.49;99424.56;5075421;28;20111;-49
2023/02/13 09:04:28;;;;;;;7.15;2.05;;;;;;;1.13;60.62;99421.56;5074649;28;20120;-52
2023/02/13 09:06:54;;;;;;;5.50;1.90;;;;;;;1.19;60.52;99423.03;5075675;28;20062;-54
2023/02/13 09:09:19;;;;;;;5.38;2.42;;;;;;;1.19;60.68;99423.03;5075205;28;20094;-51
2023/02/13 09:11:45;;;;;;;5.82;2.50;;;;;;;1.22;61.08;99422.91;5075548;28;20036;-49
2023/02/13 09:14:10;;;;;;;7.03;2.53;;;;;;;1.22;61.16;99422.91;5075668;28;20055;-46
2023/02/13 09:16:36;;;;;;;6.88;2.50;;;;;;;1.24;60.41;99412.25;5075129;28;20029;-48
2023/02/13 09:19:01;;;;;;;7.25;2.40;;;;;;;1.25;61.54;99408.69;5075152;28;20443;-49
2023/02/13 09:21:26;;;;;;;5.55;2.17;;;;;;;1.29;60.91;99410.25;5075235;28;20036;-51
2023/02/13 09:23:54;;;;;;;9.40;2.65;;;;;;;1.30;61.39;99404.03;5074682;28;20075;-50
2023/02/13 09:26:19;;;;;;;5.35;2.53;;;;;;;1.40;61.19;99407.94;5075410;28;20020;-49
2023/02/13 09:28:44;;;;;;;5.47;2.53;;;;;;;1.49;60.96;99395.22;5074866;28;20089;-51
2023/02/13 09:31:15;;;;;;;5.57;2.47;;;;;;;1.56;60.54;99392.22;5074935;28;20029;-51
2023/02/13 09:33:42;;;;;;;5.18;2.60;;;;;;;1.56;60.94;99376.38;5075281;28;20044;-52
2023/02/13 09:36:10;;;;;;;10.50;2.53;;;;;;;1.67;61.08;99374.97;5074744;28;20024;-51
2023/02/13 09:38:36;;;;;;;8.98;2.95;;;;;;;1.71;61.17;99376.53;5074666;28;20439;-48
2023/02/13 09:41:11;;;;;;;5.53;2.72;;;;;;;1.89;61.22;99373.84;5074630;28;20115;-51
2023/02/13 09:43:43;;;;;;;6.40;2.88;;;;;;;2.02;60.85;99356.44;5074845;28;20052;-49
2023/02/13 09:46:23;;;;;;;6.35;2.50;;;;;;;2.25;60.97;99359.66;5074997;28;20064;-54
2023/02/13 09:48:53;;;;;;;6.22;3.22;;;;;;;2.42;59.58;99350.81;5074646;28;20044;-50
2023/02/13 09:51:22;;;;;;;5.00;3.33;;;;;;;2.54;59.44;99341.38;5074922;28;20028;-48
2023/02/13 09:53:59;;;;;;;6.30;3.33;;;;;;;2.70;58.98;99347.50;5074544;28;20024;-52
2023/02/13 09:56:48;;;;;;;6.18;2.95;;;;;;;2.90;58.72;99340.25;5074494;28;20036;-50
2023/02/13 09:59:26;;;;;;;6.72;3.33;;;;;;;2.91;58.26;99339.31;5074547;28;20047;-50
2023/02/13 10:01:57;;;;;;;9.07;3.47;;;;;;;2.97;58.54;99333.66;5074293;28;20064;-51
2023/02/13 10:04:41;;;;;;;4.70;2.80;;;;;;;3.08;58.24;99329.53;5074215;28;20036;-57
2023/02/13 10:07:26;;;;;;;7.45;3.33;;;;;;;2.92;58.16;99330.44;5074385;28;20439;-50
2023/02/13 10:10:02;;;;;;;10.90;3.55;;;;;;;2.80;59.16;99305.56;5073863;28;20040;-50
2023/02/13 10:12:41;;;;;;;8.13;3.47;;;;;;;2.90;58.96;99321.75;5074396;28;20066;-56
2023/02/13 10:15:22;;;;;;;7.05;3.10;;;;;;;2.90;58.84;99321.75;5073667;28;20029;-51
2023/02/13 10:17:56;;;;;;;9.45;2.92;;;;;;;2.86;59.22;99323.69;5073764;28;20359;-55
2023/02/13 10:20:37;;;;;;;9.23;2.88;;;;;;;2.80;59.23;99325.84;5074046;28;20116;-50
2023/02/13 10:23:31;;;;;;;4.70;2.92;;;;;;;2.79;59.10;99325.00;5073265;28;20075;-51
2023/02/13 10:26:05;;;;;;;7.95;2.70;;;;;;;2.56;59.24;99318.34;5074107;28;20068;-48
2023/02/13 10:28:44;;;;;;;9.05;3.53;;;;;;;2.51;60.36;99325.69;5073895;28;20045;-57
2023/02/13 10:31:16;;;;;;;8.77;2.72;;;;;;;2.39;59.76;99335.97;5074146;28;20043;-54
2023/02/13 10:33:57;;;;;;;5.22;3.00;;;;;;;2.31;60.88;99321.50;5073582;28;20036;-51
2023/02/13 10:36:30;;;;;;;5.55;3.33;;;;;;;2.22;61.04;99309.63;5073604;28;20056;-49
2023/02/13 10:38:59;;;;;;;6.35;3.10;;;;;;;2.22;60.93;99305.19;5073893;28;20128;-49
2023/02/13 10:41:46;;;;;;;9.23;3.55;;;;;;;2.35;61.41;99304.53;5073685;28;20451;-51
2023/02/13 10:44:14;;;;;;;7.68;3.65;;;;;;;2.43;60.73;99300.53;5073065;28;20139;-52
2023/02/13 10:47:04;;;;;;;7.68;3.28;;;;;;;2.62;60.86;99294.22;5073558;28;20426;-50
2023/02/13 10:49:45;;;;;;;7.78;3.80;;;;;;;2.79;60.41;99287.13;5073755;28;20055;-49
2023/02/13 10:52:32;;;;;;;11.35;3.50;;;;;;;2.90;59.62;99284.72;5073341;28;20498;-51
2023/02/13 10:55:19;;;;;;;6.65;3.42;;;;;;;2.86;59.80;99283.19;5073520;28;20032;-50
2023/02/13 10:57:47;;;;;;;7.28;3.53;;;;;;;2.71;59.79;99277.84;5072461;28;20439;-50
2023/02/13 11:01:01;;;;;;;6.55;3.22;;;;;;;2.73;60.71;99273.31;5073690;28;20411;-48
2023/02/13 11:03:27;;;;;;;6.85;3.17;;;;;;;2.61;60.60;99274.00;5063976;28;20036;-49
2023/02/13 11:05:54;;;;;;;10.45;3.60;;;;;;;2.54;60.79;99267.38;5073066;28;20425;-51
2023/02/13 11:08:23;;;;;;;7.60;3.28;;;;;;;2.47;60.95;99250.16;5073397;28;20090;-51
2023/02/13 11:10:50;;;;;;;6.85;3.60;;;;;;;2.51;61.29;99257.81;5073332;28;20036;-49
2023/02/13 11:13:28;;;;;;;7.80;3.28;;;;;;;2.67;61.20;99241.09;5073096;28;20024;-49
2023/02/13 11:16:04;;;;;;;5.82;3.08;;;;;;;2.81;61.76;99248.22;5073028;28;20044;-50
2023/02/13 11:18:40;;;;;;;7.45;3.50;;;;;;;3.01;60.92;99231.19;5073474;28;20120;-54
2023/02/13 11:21:15;;;;;;;8.40;3.22;;;;;;;3.25;61.03;99231.53;5073256;28;20056;-53
2023/02/13 11:23:41;;;;;;;;;;;;;;;3.76;59.68;99245.28;5073243;28;20052;-56
2023/02/13 11:26:07;;;;;;;;;;;;;;;4.06;58.67;99239.84;5073008;28;20330;-53
2023/02/13 11:28:54;;;;;;;8.15;2.90;;;;;;;3.83;58.87;99241.31;5073895;28;20003;-49
2023/02/13 11:31:25;;;;;;;6.10;3.10;;;;;;;3.63;59.33;99237.25;5072730;28;20024;-51
2023/02/13 11:33:51;;;;;;;7.00;3.28;;;;;;;3.37;59.39;99237.03;5072675;28;20476;-51
2023/02/13 11:36:37;;;;;;;8.93;3.42;;;;;;;3.20;61.36;99232.75;5072588;28;20039;-47
2023/02/13 11:39:06;;;;;;;9.88;3.83;;;;;;;3.03;60.72;99231.97;5072590;28;20040;-50
2023/02/13 11:41:39;;;;;;;9.13;3.88;;;;;;;2.96;61.88;99215.59;5072889;28;20111;-49
2023/02/13 11:44:17;;;;;;;7.18;3.55;;;;;;;2.88;61.33;99212.53;5072684;28;20058;-50
2023/02/13 11:46:46;;;;;;;10.65;4.03;;;;;;;2.82;61.51;99202.34;5072812;28;20037;-50
2023/02/13 11:49:24;;;;;;;12.00;3.78;;;;;;;2.83;61.87;99211.97;5072791;28;20125;-47
2023/02/13 11:51:55;;;;;;;10.55;4.10;;;;;;;2.83;61.93;99196.97;5072779;28;20055;-47
2023/02/13 11:54:32;;;;;;;6.53;3.25;;;;;;;2.94;62.11;99184.91;5072950;28;20573;-51
2023/02/13 11:57:23;;;;;;;9.10;3.63;;;;;;;3.03;61.84;99196.72;5072465;28;20119;-47
2023/02/13 11:59:51;;;;;;;7.15;3.38;;;;;;;3.16;60.95;99189.78;5061637;28;20049;-50
2023/02/13 12:02:26;;;;;;;7.38;2.97;;;;;;;3.22;61.18;99193.81;5072622;28;20037;-50
2023/02/13 12:05:12;;;;;;;10.07;3.40;;;;;;;3.32;61.03;99194.13;5072626;28;20025;-49
2023/02/13 12:07:39;;;;;;;8.95;2.78;;;;;;;3.33;60.81;99179.94;5072450;28;20035;-49
2023/02/13 12:10:19;;;;;;;4.88;2.47;;;;;;;3.41;60.94;99170.59;5072821;28;20349;-50
2023/02/13 12:12:58;;;;;;;8.20;2.95;;;;;;;3.54;60.36;99175.97;5072387;28;20044;-49
2023/02/13 12:15:29;;;;;;;7.85;2.83;;;;;;;3.59;60.33;99170.41;5072523;28;20405;-47
2023/02/13 12:18:07;;;;;;;7.75;3.45;;;;;;;3.56;60.11;99158.19;5072554;28;20021;-50
2023/02/13 12:21:01;;;;;;;16.52;3.47;;;;;;;3.53;60.31;99161.03;5072649;28;20033;-49
2023/02/13 12:23:37;;;;;;;14.85;3.97;;;;;;;3.44;60.40;99145.75;5072155;28;20036;-53
2023/02/13 12:26:02;;;;;;;13.07;3.08;;;;;;;3.38;60.37;99162.00;5073008;28;20063;-49
2023/02/13 12:28:57;;;;;;;6.95;2.40;;;;;;;3.37;61.31;99162.94;5072249;28;20569;-49
2023/02/13 12:31:54;;;;;;;4.55;2.50;;;;;;;3.21;61.69;99161.25;5068243;28;20048;-52
2023/02/13 12:34:38;;;;;;;5.20;2.78;;;;;;;3.13;61.92;99152.91;5070312;28;20079;-49
2023/02/13 12:37:35;;;;;;;8.25;2.65;;;;;;;3.16;61.59;99150.09;5072547;28;20064;-49